createdAt,value
2018-10-11T00:00:10.999Z,26.90
2018-10-11T00:03:01.842Z,26.80
2018-10-11T00:05:52.627Z,26.80
2018-10-11T00:08:43.326Z,26.90
2018-10-11T00:11:34.028Z,26.90
2018-10-11T00:14:29.623Z,26.90
2018-10-11T00:17:20.985Z,26.90
2018-10-11T00:20:11.600Z,26.90
2018-10-11T00:23:02.331Z,26.90
2018-10-11T00:25:53.197Z,26.90
2018-10-11T00:28:45.486Z,26.90
2018-10-11T00:31:37.238Z,26.90
2018-10-11T00:34:28.221Z,26.90
2018-10-11T00:37:20.009Z,26.80
2018-10-11T00:40:11.985Z,26.80
2018-10-11T00:43:03.650Z,26.80
2018-10-11T00:45:55.293Z,26.80
2018-10-11T00:48:46.551Z,26.80
2018-10-11T00:51:38.115Z,26.80
2018-10-11T00:54:29.262Z,26.70
2018-10-11T00:57:20.869Z,26.70
2018-10-11T01:00:11.780Z,26.70
2018-10-11T01:03:02.416Z,26.70
2018-10-11T01:05:53.553Z,26.70
2018-10-11T01:08:44.778Z,26.70
2018-10-11T01:11:35.469Z,26.70
2018-10-11T01:14:26.141Z,26.70
2018-10-11T01:17:16.901Z,26.70
2018-10-11T01:20:08.818Z,26.80
2018-10-11T01:23:00.808Z,26.80
2018-10-11T01:25:51.549Z,26.80
2018-10-11T01:28:42.226Z,26.80
2018-10-11T01:31:32.882Z,26.70
2018-10-11T01:34:23.666Z,26.70
2018-10-11T01:37:15.121Z,26.70
2018-10-11T01:40:09.890Z,26.70
2018-10-11T01:43:13.764Z,26.70
2018-10-11T01:46:04.721Z,26.70
2018-10-11T01:48:55.482Z,26.70
2018-10-11T01:51:45.639Z,26.70
2018-10-11T01:54:37.895Z,26.70
2018-10-11T01:57:31.375Z,26.70
2018-10-11T02:00:22.742Z,26.70
2018-10-11T02:03:14.855Z,26.70
2018-10-11T02:06:07.589Z,26.70
2018-10-11T02:08:58.543Z,26.70
2018-10-11T02:11:49.486Z,26.70
2018-10-11T02:14:41.000Z,26.80
2018-10-11T02:17:32.221Z,26.80
2018-10-11T02:20:24.637Z,26.80
2018-10-11T02:23:15.800Z,26.80
2018-10-11T02:26:06.471Z,26.90
2018-10-11T02:28:59.413Z,26.90
2018-10-11T02:31:50.418Z,26.90
2018-10-11T02:34:41.208Z,26.90
2018-10-11T02:37:32.864Z,26.90
2018-10-11T02:40:24.008Z,26.90
2018-10-11T02:43:17.797Z,27.00
2018-10-11T02:46:08.591Z,27.00
2018-10-11T02:48:59.298Z,27.00
2018-10-11T02:51:54.200Z,27.00
2018-10-11T02:54:47.485Z,27.00
2018-10-11T02:57:45.636Z,27.00
2018-10-11T03:00:42.381Z,27.10
2018-10-11T03:03:34.693Z,27.10
2018-10-11T03:06:26.505Z,27.20
2018-10-11T03:09:18.682Z,27.20
2018-10-11T03:12:09.612Z,27.20
2018-10-11T03:15:01.850Z,27.20
2018-10-11T03:17:52.391Z,27.20
2018-10-11T03:20:44.542Z,27.30
2018-10-11T03:23:35.790Z,27.30
2018-10-11T03:26:29.772Z,27.30
2018-10-11T03:29:20.851Z,27.40
2018-10-11T03:34:47.229Z,27.50
2018-10-11T03:37:38.813Z,27.50
2018-10-11T03:40:30.325Z,27.50
2018-10-11T03:43:21.596Z,27.50
2018-10-11T03:46:13.481Z,27.50
2018-10-11T03:49:04.456Z,27.50
2018-10-11T03:51:55.599Z,27.50
2018-10-11T03:54:47.169Z,27.50
2018-10-11T03:57:38.700Z,27.50
2018-10-11T04:00:29.589Z,27.60
2018-10-11T04:03:20.231Z,27.60
2018-10-11T04:06:11.137Z,27.60
2018-10-11T04:09:02.770Z,27.70
2018-10-11T04:11:55.665Z,27.70
2018-10-11T04:14:47.966Z,27.80
2018-10-11T04:17:38.946Z,27.80
2018-10-11T04:20:29.797Z,27.80
2018-10-11T04:23:24.917Z,27.80
2018-10-11T04:26:16.427Z,27.90
2018-10-11T04:29:07.579Z,27.90
2018-10-11T04:31:58.020Z,28.00
2018-10-11T04:34:49.274Z,28.10
2018-10-11T04:37:39.764Z,28.10
2018-10-11T04:40:30.534Z,28.10
2018-10-11T04:43:22.355Z,28.20
2018-10-11T04:46:13.658Z,28.20
2018-10-11T04:49:04.995Z,28.20
2018-10-11T04:51:55.830Z,28.20
2018-10-11T04:54:48.052Z,28.20
2018-10-11T04:57:39.527Z,28.20
2018-10-11T05:00:31.290Z,28.20
2018-10-11T05:03:22.813Z,28.20
2018-10-11T05:06:13.885Z,28.30
2018-10-11T05:09:08.382Z,28.30
2018-10-11T05:12:02.075Z,28.30
2018-10-11T05:14:55.364Z,28.30
2018-10-11T05:17:50.404Z,28.40
2018-10-11T05:20:46.889Z,28.40
2018-10-11T05:23:45.806Z,28.50
2018-10-11T05:26:36.353Z,28.50
2018-10-11T05:29:28.377Z,28.60
2018-10-11T05:32:23.727Z,28.70
2018-10-11T05:35:16.140Z,28.70
2018-10-11T05:38:07.367Z,28.80
2018-10-11T05:40:59.676Z,28.80
2018-10-11T05:43:52.804Z,28.90
2018-10-11T05:46:47.639Z,28.90
2018-10-11T05:49:42.849Z,29.00
2018-10-11T05:52:35.903Z,29.00
2018-10-11T05:55:41.738Z,29.10
2018-10-11T05:59:04.885Z,29.10
2018-10-11T06:05:15.422Z,29.30
2018-10-11T06:08:11.638Z,29.30
2018-10-11T06:11:06.823Z,29.40
2018-10-11T06:14:03.568Z,29.40
2018-10-11T06:20:16.739Z,29.40
2018-10-11T06:23:14.078Z,29.50
2018-10-11T06:26:11.369Z,29.50
2018-10-11T06:29:10.549Z,29.50
2018-10-11T06:32:11.642Z,29.60
2018-10-11T06:35:07.690Z,29.60
2018-10-11T06:38:03.972Z,29.50
2018-10-11T06:41:04.928Z,29.60
2018-10-11T06:44:00.542Z,29.60
2018-10-11T06:46:54.966Z,29.70
2018-10-11T06:49:52.489Z,29.70
2018-10-11T06:59:20.269Z,29.80
2018-10-11T07:08:29.438Z,30.00
2018-10-11T07:11:23.368Z,30.00
2018-10-11T07:17:32.237Z,30.10
2018-10-11T07:20:27.464Z,30.10
2018-10-11T07:23:25.036Z,30.10
2018-10-11T07:26:21.058Z,30.00
2018-10-11T07:32:18.955Z,30.00
2018-10-11T07:35:22.351Z,30.00
2018-10-11T07:38:29.807Z,30.00
2018-10-11T07:41:26.754Z,30.00
2018-10-11T07:44:26.798Z,30.00
2018-10-11T07:53:24.602Z,30.10
2018-10-11T07:56:21.945Z,30.10
2018-10-11T07:59:38.636Z,30.10
2018-10-11T08:02:37.958Z,30.10
2018-10-11T08:08:56.247Z,30.00
2018-10-11T08:15:25.539Z,29.90
2018-10-11T08:18:23.929Z,30.00
2018-10-11T08:21:20.119Z,30.00
2018-10-11T08:31:25.584Z,30.00
2018-10-11T08:37:51.593Z,30.00
2018-10-11T08:40:49.675Z,30.00
2018-10-11T08:43:46.910Z,30.00
2018-10-11T08:46:42.075Z,30.00
2018-10-11T08:49:50.894Z,30.00
2018-10-11T08:52:44.221Z,30.00
2018-10-11T08:55:42.306Z,30.00
2018-10-11T08:58:40.701Z,30.00
2018-10-11T09:01:37.899Z,30.00
2018-10-11T09:04:30.923Z,30.00
2018-10-11T09:07:29.414Z,30.00
2018-10-11T09:10:30.558Z,30.00
2018-10-11T09:13:16.616Z,30.00
2018-10-11T09:16:12.096Z,30.00
2018-10-11T09:19:04.708Z,30.10
2018-10-11T09:21:58.206Z,30.10
2018-10-11T09:24:52.882Z,30.10
2018-10-11T09:27:47.499Z,30.10
2018-10-11T09:30:42.899Z,30.20
2018-10-11T09:33:39.582Z,30.20
2018-10-11T09:36:33.338Z,30.20
2018-10-11T09:39:30.728Z,30.20
2018-10-11T09:42:35.236Z,30.20
2018-10-11T09:45:37.077Z,30.10
2018-10-11T09:48:33.071Z,30.10
2018-10-11T09:51:35.398Z,30.10
2018-10-11T09:54:38.623Z,30.00
2018-10-11T09:57:57.293Z,30.00
2018-10-11T10:00:52.918Z,30.00
2018-10-11T10:07:41.481Z,30.00
2018-10-11T10:10:39.611Z,30.00
2018-10-11T10:13:33.904Z,30.00
2018-10-11T10:16:28.117Z,30.00
2018-10-11T10:19:23.325Z,30.00
2018-10-11T10:22:16.119Z,29.90
2018-10-11T10:25:11.201Z,29.90
2018-10-11T10:28:06.922Z,29.80
2018-10-11T10:31:38.560Z,29.80
2018-10-11T10:34:34.022Z,29.80
2018-10-11T10:37:25.969Z,29.70
2018-10-11T10:40:17.949Z,29.60
2018-10-11T10:46:18.380Z,29.60
2018-10-11T10:56:00.493Z,29.60
2018-10-11T10:58:55.100Z,29.50
2018-10-11T11:01:48.549Z,29.50
2018-10-11T11:04:41.597Z,29.50
2018-10-11T11:07:37.154Z,29.50
2018-10-11T11:10:28.860Z,29.40
2018-10-11T11:13:24.472Z,29.40
2018-10-11T11:16:19.097Z,29.40
2018-10-11T11:19:41.644Z,29.40
2018-10-11T11:22:35.276Z,29.40
2018-10-11T11:25:28.358Z,29.40
2018-10-11T11:28:35.182Z,29.40
2018-10-11T11:31:34.479Z,29.40
2018-10-11T11:34:31.158Z,29.30
2018-10-11T11:37:26.240Z,29.30
2018-10-11T11:40:23.034Z,29.30
2018-10-11T11:43:19.515Z,29.30
2018-10-11T11:46:12.346Z,29.30
2018-10-11T11:49:05.025Z,29.40
2018-10-11T11:51:58.033Z,29.40
2018-10-11T11:54:50.804Z,29.40
2018-10-11T11:57:44.290Z,29.30
2018-10-11T12:00:37.235Z,29.30
2018-10-11T12:03:30.206Z,29.30
2018-10-11T12:06:32.502Z,29.20
2018-10-11T12:09:28.074Z,29.20
2018-10-11T12:12:59.633Z,29.20
2018-10-11T12:15:58.677Z,29.20
2018-10-11T12:18:51.492Z,29.10
2018-10-11T12:21:44.022Z,29.10
2018-10-11T12:24:43.055Z,29.10
2018-10-11T12:27:40.072Z,29.10
2018-10-11T12:30:34.878Z,29.10
2018-10-11T12:33:28.902Z,29.10
2018-10-11T12:36:20.262Z,29.00
2018-10-11T12:39:13.452Z,29.00
2018-10-11T12:42:08.706Z,29.00
2018-10-11T12:45:02.220Z,29.00
2018-10-11T12:47:53.281Z,28.90
2018-10-11T12:50:55.310Z,28.90
2018-10-11T12:53:48.531Z,28.90
2018-10-11T12:56:38.623Z,28.90
2018-10-11T12:59:30.908Z,28.90
2018-10-11T13:02:23.243Z,28.90
2018-10-11T13:05:14.501Z,28.80
2018-10-11T13:08:04.688Z,28.80
2018-10-11T13:10:58.694Z,28.80
2018-10-11T13:13:52.021Z,28.80
2018-10-11T13:16:40.617Z,28.80
2018-10-11T13:19:31.794Z,28.80
2018-10-11T13:23:50.724Z,28.70
2018-10-11T13:26:42.779Z,28.70
2018-10-11T13:29:33.983Z,28.70
2018-10-11T13:32:24.932Z,28.70
2018-10-11T13:35:15.671Z,28.70
2018-10-11T13:38:07.434Z,28.70
2018-10-11T13:41:03.703Z,28.70
2018-10-11T13:43:52.197Z,28.70
2018-10-11T13:46:43.680Z,28.70
2018-10-11T13:49:34.494Z,28.70
2018-10-11T13:52:25.709Z,28.70
2018-10-11T13:55:16.411Z,28.70
2018-10-11T13:58:07.813Z,28.70
2018-10-11T14:00:58.356Z,28.70
2018-10-11T14:03:50.128Z,28.60
2018-10-11T14:06:40.768Z,28.60
2018-10-11T14:09:32.312Z,28.60
2018-10-11T14:12:28.849Z,28.60
2018-10-11T14:15:19.934Z,28.60
2018-10-11T14:18:12.402Z,28.60
2018-10-11T14:21:02.548Z,28.50
2018-10-11T14:23:53.478Z,28.50
2018-10-11T14:26:46.959Z,28.50
2018-10-11T14:29:37.904Z,28.50
2018-10-11T14:32:30.817Z,28.50
2018-10-11T14:35:23.706Z,28.50
2018-10-11T14:38:14.645Z,28.50
2018-10-11T14:41:05.383Z,28.50
2018-10-11T14:43:56.050Z,28.40
2018-10-11T14:46:46.928Z,28.40
2018-10-11T14:49:37.609Z,28.50
2018-10-11T14:52:28.650Z,28.40
2018-10-11T14:55:20.165Z,28.40
2018-10-11T14:58:11.924Z,28.40
2018-10-11T15:01:03.196Z,28.40
2018-10-11T15:03:54.207Z,28.40
2018-10-11T15:06:45.212Z,28.40
2018-10-11T15:09:38.053Z,28.40
2018-10-11T15:12:29.225Z,28.40
2018-10-11T15:15:19.917Z,28.40
2018-10-11T15:18:10.563Z,28.40
2018-10-11T15:21:01.604Z,28.40
2018-10-11T15:23:52.046Z,28.40
2018-10-11T15:26:45.117Z,28.40
2018-10-11T15:29:35.829Z,28.40
2018-10-11T15:32:27.746Z,28.40
2018-10-11T15:35:19.541Z,28.30
2018-10-11T15:38:11.267Z,28.40
2018-10-11T15:41:01.767Z,28.40
2018-10-11T15:43:55.254Z,28.30
2018-10-11T15:46:46.365Z,28.40
2018-10-11T15:49:37.319Z,28.30
2018-10-11T15:52:29.318Z,28.30
2018-10-11T15:55:20.131Z,28.30
2018-10-11T15:58:10.901Z,28.30
2018-10-11T16:01:01.055Z,28.30
2018-10-11T16:03:52.052Z,28.30
2018-10-11T16:06:42.925Z,28.30
2018-10-11T16:09:34.710Z,28.30
2018-10-11T16:12:26.817Z,28.20
2018-10-11T16:15:18.139Z,28.20
2018-10-11T16:18:09.348Z,28.20
2018-10-11T16:21:00.221Z,28.20
2018-10-11T16:23:50.577Z,28.10
2018-10-11T16:26:42.788Z,28.10
2018-10-11T16:29:33.040Z,28.10
2018-10-11T16:32:24.006Z,28.10
2018-10-11T16:35:14.876Z,28.10
2018-10-11T16:38:05.755Z,28.10
2018-10-11T16:40:57.252Z,28.10
2018-10-11T16:43:48.140Z,28.00
2018-10-11T16:46:39.679Z,28.00
2018-10-11T16:49:31.343Z,28.00
2018-10-11T16:52:22.648Z,28.00
2018-10-11T16:55:13.029Z,28.00
2018-10-11T16:58:04.293Z,27.90
2018-10-11T17:00:55.062Z,27.90
2018-10-11T17:03:45.763Z,27.90
2018-10-11T17:06:36.163Z,27.90
2018-10-11T17:09:27.461Z,27.90
2018-10-11T17:12:18.663Z,27.90
2018-10-11T17:15:09.275Z,27.80
2018-10-11T17:18:00.047Z,27.80
2018-10-11T17:20:50.399Z,27.80
2018-10-11T17:23:41.839Z,27.80
2018-10-11T17:26:32.623Z,27.80
2018-10-11T17:29:23.954Z,27.80
2018-10-11T17:32:15.107Z,27.80
2018-10-11T17:35:05.631Z,27.80
2018-10-11T17:37:56.653Z,27.70
2018-10-11T17:40:48.601Z,27.70
2018-10-11T17:43:39.451Z,27.70
2018-10-11T17:46:31.239Z,27.70
2018-10-11T17:49:22.584Z,27.70
2018-10-11T17:52:13.382Z,27.70
2018-10-11T17:55:06.126Z,27.70
2018-10-11T17:57:57.435Z,27.60
2018-10-11T18:00:49.777Z,27.60
2018-10-11T18:03:41.070Z,27.60
2018-10-11T18:06:33.190Z,27.60
2018-10-11T18:09:24.038Z,27.60
2018-10-11T18:12:15.645Z,27.50
2018-10-11T18:15:08.939Z,27.50
2018-10-11T18:17:59.540Z,27.50
2018-10-11T18:20:50.640Z,27.50
2018-10-11T18:23:44.440Z,27.50
2018-10-11T18:26:35.251Z,27.50
2018-10-11T18:29:26.591Z,27.50
2018-10-11T18:32:17.291Z,27.40
2018-10-11T18:35:08.297Z,27.40
2018-10-11T18:37:59.201Z,27.40
2018-10-11T18:40:49.608Z,27.40
2018-10-11T18:43:41.136Z,27.40
2018-10-11T18:46:31.514Z,27.40
2018-10-11T18:49:22.317Z,27.40
2018-10-11T18:52:13.681Z,27.40
2018-10-11T18:55:04.227Z,27.40
2018-10-11T18:57:55.052Z,27.40
2018-10-11T19:00:45.981Z,27.50
2018-10-11T19:03:36.967Z,27.50
2018-10-11T19:06:28.116Z,27.50
2018-10-11T19:09:18.820Z,27.50
2018-10-11T19:12:09.714Z,27.50
2018-10-11T19:15:00.527Z,27.50
2018-10-11T19:17:51.620Z,27.50
2018-10-11T19:20:42.492Z,27.50
2018-10-11T19:23:34.025Z,27.50
2018-10-11T19:26:29.437Z,27.50
2018-10-11T19:29:21.207Z,27.50
2018-10-11T19:32:12.472Z,27.50
2018-10-11T19:35:03.238Z,27.50
2018-10-11T19:37:56.094Z,27.50
2018-10-11T19:40:46.751Z,27.50
2018-10-11T19:43:38.809Z,27.50
2018-10-11T19:46:30.175Z,27.50
2018-10-11T19:49:20.944Z,27.40
2018-10-11T19:52:12.004Z,27.40
2018-10-11T19:55:04.162Z,27.40
2018-10-11T19:57:54.645Z,27.40
2018-10-11T20:00:45.669Z,27.40
2018-10-11T20:03:36.716Z,27.40
2018-10-11T20:06:27.305Z,27.40
2018-10-11T20:09:18.332Z,27.40
2018-10-11T20:12:08.701Z,27.40
2018-10-11T20:14:59.771Z,27.30
2018-10-11T20:17:50.552Z,27.30
2018-10-11T20:20:41.693Z,27.30
2018-10-11T20:23:32.890Z,27.30
2018-10-11T20:26:23.093Z,27.30
2018-10-11T20:29:14.037Z,27.30
2018-10-11T20:32:05.303Z,27.20
2018-10-11T20:34:56.506Z,27.20
2018-10-11T20:37:48.028Z,27.20
2018-10-11T20:40:38.493Z,27.10
2018-10-11T20:43:29.944Z,27.10
2018-10-11T20:46:20.924Z,27.10
2018-10-11T20:49:11.779Z,27.10
2018-10-11T20:52:02.636Z,27.00
2018-10-11T20:54:55.069Z,27.00
2018-10-11T20:57:45.445Z,27.00
2018-10-11T21:00:36.759Z,27.00
2018-10-11T21:03:27.235Z,26.90
2018-10-11T21:06:20.798Z,26.90
2018-10-11T21:09:14.025Z,26.90
2018-10-11T21:12:05.066Z,26.90
2018-10-11T21:14:56.064Z,26.90
2018-10-11T21:17:47.139Z,26.90
2018-10-11T21:20:37.861Z,26.80
2018-10-11T21:23:29.019Z,26.90
2018-10-11T21:26:20.719Z,26.80
2018-10-11T21:29:11.355Z,26.80
2018-10-11T21:32:03.254Z,26.80
2018-10-11T21:34:55.288Z,26.70
2018-10-11T21:37:45.926Z,26.70
2018-10-11T21:40:36.530Z,26.70
2018-10-11T21:43:30.690Z,26.70
2018-10-11T21:46:22.107Z,26.70
2018-10-11T21:49:12.905Z,26.70
2018-10-11T21:52:03.585Z,26.60
2018-10-11T21:54:54.303Z,26.60
2018-10-11T21:57:45.364Z,26.60
2018-10-11T22:00:39.183Z,26.60
2018-10-11T22:03:30.642Z,26.60
2018-10-11T22:06:21.588Z,26.60
2018-10-11T22:09:12.683Z,26.60
2018-10-11T22:12:08.980Z,26.50
2018-10-11T22:14:59.872Z,26.50
2018-10-11T22:17:50.768Z,26.50
2018-10-11T22:20:41.499Z,26.50
2018-10-11T22:23:31.971Z,26.50
2018-10-11T22:26:22.459Z,26.50
2018-10-11T22:29:13.018Z,26.50
2018-10-11T22:37:02.452Z,26.50
2018-10-11T22:39:53.259Z,26.50
2018-10-11T22:42:44.542Z,26.50
2018-10-11T22:45:34.971Z,26.50
2018-10-11T22:48:26.323Z,26.50
2018-10-11T22:51:17.214Z,26.50
2018-10-11T22:54:08.325Z,26.40
2018-10-11T22:56:59.075Z,26.40
2018-10-11T22:59:50.403Z,26.40
2018-10-11T23:02:41.152Z,26.40
2018-10-11T23:05:31.886Z,26.40
2018-10-11T23:08:22.626Z,26.40
2018-10-11T23:11:14.688Z,26.50
2018-10-11T23:14:06.945Z,26.50
2018-10-11T23:17:00.745Z,26.50
2018-10-11T23:19:51.372Z,26.50
2018-10-11T23:22:43.500Z,26.50
2018-10-11T23:25:34.320Z,26.60
2018-10-11T23:28:24.607Z,26.60
2018-10-11T23:31:15.904Z,26.60
2018-10-11T23:34:06.861Z,26.60
2018-10-11T23:36:57.777Z,26.70
2018-10-11T23:39:48.673Z,26.70
2018-10-11T23:42:39.398Z,26.70
2018-10-11T23:45:30.159Z,26.70
2018-10-11T23:48:21.216Z,26.70
2018-10-11T23:51:12.606Z,26.70
2018-10-11T23:54:03.129Z,26.70
2018-10-11T23:56:54.231Z,26.70
2018-10-11T23:59:45.084Z,26.70
